sensor_id;sensor_type;location;lat;lon;timestamp;temperature;humidity
33105;DHT22;19476;51.448;6.674;2023-03-04T00:04:09;12.60;41.10
33105;DHT22;19476;51.448;6.674;2023-03-04T00:06:35;12.60;40.80
33105;DHT22;19476;51.448;6.674;2023-03-04T00:09:01;12.60;40.80
33105;DHT22;19476;51.448;6.674;2023-03-04T00:11:28;12.60;40.90
33105;DHT22;19476;51.448;6.674;2023-03-04T00:13:54;12.60;41.00
33105;DHT22;19476;51.448;6.674;2023-03-04T00:16:20;12.60;41.10
33105;DHT22;19476;51.448;6.674;2023-03-04T00:18:46;12.60;40.90
33105;DHT22;19476;51.448;6.674;2023-03-04T00:24:40;12.40;41.20
33105;DHT22;19476;51.448;6.674;2023-03-04T00:30:28;12.70;41.40
33105;DHT22;19476;51.448;6.674;2023-03-04T00:32:53;12.70;41.10
33105;DHT22;19476;51.448;6.674;2023-03-04T00:35:19;12.70;41.10
33105;DHT22;19476;51.448;6.674;2023-03-04T00:37:45;12.70;41.10
33105;DHT22;19476;51.448;6.674;2023-03-04T00:40:11;12.70;41.00
33105;DHT22;19476;51.448;6.674;2023-03-04T00:49:28;12.70;41.20
33105;DHT22;19476;51.448;6.674;2023-03-04T00:55:25;12.70;41.40
33105;DHT22;19476;51.448;6.674;2023-03-04T00:57:50;12.80;41.30
33105;DHT22;19476;51.448;6.674;2023-03-04T01:03:38;12.70;41.40
33105;DHT22;19476;51.448;6.674;2023-03-04T01:06:39;12.70;41.10
33105;DHT22;19476;51.448;6.674;2023-03-04T01:09:05;12.80;41.50
33105;DHT22;19476;51.448;6.674;2023-03-04T01:18:00;12.80;41.50
33105;DHT22;19476;51.448;6.674;2023-03-04T01:23:58;12.80;41.50
33105;DHT22;19476;51.448;6.674;2023-03-04T01:26:23;12.80;41.40
33105;DHT22;19476;51.448;6.674;2023-03-04T01:35:29;12.70;41.60
33105;DHT22;19476;51.448;6.674;2023-03-04T01:37:55;12.70;41.50
33105;DHT22;19476;51.448;6.674;2023-03-04T01:40:41;12.70;41.30
33105;DHT22;19476;51.448;6.674;2023-03-04T01:43:18;12.70;41.80
33105;DHT22;19476;51.448;6.674;2023-03-04T01:45:48;12.70;41.70
33105;DHT22;19476;51.448;6.674;2023-03-04T01:48:17;12.60;41.60
33105;DHT22;19476;51.448;6.674;2023-03-04T01:54:15;12.60;41.90
33105;DHT22;19476;51.448;6.674;2023-03-04T01:56:43;12.60;41.80
33105;DHT22;19476;51.448;6.674;2023-03-04T02:02:25;12.60;42.00
33105;DHT22;19476;51.448;6.674;2023-03-04T02:08:13;12.60;42.00
33105;DHT22;19476;51.448;6.674;2023-03-04T02:14:01;12.60;42.00
33105;DHT22;19476;51.448;6.674;2023-03-04T02:16:55;12.60;41.60
33105;DHT22;19476;51.448;6.674;2023-03-04T02:22:03;12.60;42.00
33105;DHT22;19476;51.448;6.674;2023-03-04T02:24:42;12.50;41.70
33105;DHT22;19476;51.448;6.674;2023-03-04T02:27:09;12.60;42.00
33105;DHT22;19476;51.448;6.674;2023-03-04T02:30:10;12.50;41.70
33105;DHT22;19476;51.448;6.674;2023-03-04T02:36:08;12.50;42.10
33105;DHT22;19476;51.448;6.674;2023-03-04T02:38:34;12.40;42.00
33105;DHT22;19476;51.448;6.674;2023-03-04T02:44:25;12.40;42.10
33105;DHT22;19476;51.448;6.674;2023-03-04T02:47:02;12.40;42.00
33105;DHT22;19476;51.448;6.674;2023-03-04T02:49:29;12.40;42.10
33105;DHT22;19476;51.448;6.674;2023-03-04T02:52:03;12.40;42.00
33105;DHT22;19476;51.448;6.674;2023-03-04T02:54:29;12.40;42.10
33105;DHT22;19476;51.448;6.674;2023-03-04T02:57:23;12.40;41.80
33105;DHT22;19476;51.448;6.674;2023-03-04T02:59:48;12.40;42.20
33105;DHT22;19476;51.448;6.674;2023-03-04T03:02:14;12.40;41.80
33105;DHT22;19476;51.448;6.674;2023-03-04T03:04:40;12.40;41.90
33105;DHT22;19476;51.448;6.674;2023-03-04T03:07:06;12.30;42.00
33105;DHT22;19476;51.448;6.674;2023-03-04T03:12:45;12.40;42.60
33105;DHT22;19476;51.448;6.674;2023-03-04T03:18:19;12.40;42.60
33105;DHT22;19476;51.448;6.674;2023-03-04T03:27:39;12.40;42.40
33105;DHT22;19476;51.448;6.674;2023-03-04T03:30:06;12.40;42.40
33105;DHT22;19476;51.448;6.674;2023-03-04T03:35:54;12.40;42.70
33105;DHT22;19476;51.448;6.674;2023-03-04T03:38:19;12.40;42.10
33105;DHT22;19476;51.448;6.674;2023-03-04T03:40:45;12.40;42.10
33105;DHT22;19476;51.448;6.674;2023-03-04T03:43:11;12.50;42.20
33105;DHT22;19476;51.448;6.674;2023-03-04T03:45:36;12.40;42.20
33105;DHT22;19476;51.448;6.674;2023-03-04T03:48:03;12.40;42.30
33105;DHT22;19476;51.448;6.674;2023-03-04T03:50:29;12.40;42.40
33105;DHT22;19476;51.448;6.674;2023-03-04T03:56:16;12.40;42.90
33105;DHT22;19476;51.448;6.674;2023-03-04T04:05:35;12.40;42.80
33105;DHT22;19476;51.448;6.674;2023-03-04T04:08:01;12.40;42.70
33105;DHT22;19476;51.448;6.674;2023-03-04T04:13:32;12.30;42.70
33105;DHT22;19476;51.448;6.674;2023-03-04T04:19:20;12.20;43.00
33105;DHT22;19476;51.448;6.674;2023-03-04T04:21:46;12.10;42.60
33105;DHT22;19476;51.448;6.674;2023-03-04T04:24:12;12.10;42.70
33105;DHT22;19476;51.448;6.674;2023-03-04T04:26:38;12.10;42.90
33105;DHT22;19476;51.448;6.674;2023-03-04T04:35:47;12.00;43.80
33105;DHT22;19476;51.448;6.674;2023-03-04T04:38:14;12.00;43.60
33105;DHT22;19476;51.448;6.674;2023-03-04T04:41:19;12.00;43.40
33105;DHT22;19476;51.448;6.674;2023-03-04T04:43:45;12.00;43.80
33105;DHT22;19476;51.448;6.674;2023-03-04T04:49:16;12.00;43.70
33105;DHT22;19476;51.448;6.674;2023-03-04T04:54:57;12.10;43.70
33105;DHT22;19476;51.448;6.674;2023-03-04T05:00:45;12.10;43.60
33105;DHT22;19476;51.448;6.674;2023-03-04T05:06:33;12.10;43.50
33105;DHT22;19476;51.448;6.674;2023-03-04T05:12:20;12.10;43.60
33105;DHT22;19476;51.448;6.674;2023-03-04T05:14:46;12.20;43.30
33105;DHT22;19476;51.448;6.674;2023-03-04T05:17:11;12.10;43.40
33105;DHT22;19476;51.448;6.674;2023-03-04T05:22:59;12.10;44.00
33105;DHT22;19476;51.448;6.674;2023-03-04T05:25:49;12.10;43.50
33105;DHT22;19476;51.448;6.674;2023-03-04T05:31:46;12.10;43.90
33105;DHT22;19476;51.448;6.674;2023-03-04T05:34:11;12.10;43.70
33105;DHT22;19476;51.448;6.674;2023-03-04T05:39:42;12.10;43.90
33105;DHT22;19476;51.448;6.674;2023-03-04T05:42:42;12.10;43.50
33105;DHT22;19476;51.448;6.674;2023-03-04T05:48:39;12.10;43.80
33105;DHT22;19476;51.448;6.674;2023-03-04T05:51:05;12.10;43.70
33105;DHT22;19476;51.448;6.674;2023-03-04T05:56:40;12.10;43.90
33105;DHT22;19476;51.448;6.674;2023-03-04T05:59:37;12.10;43.50
33105;DHT22;19476;51.448;6.674;2023-03-04T06:02:03;12.10;43.90
33105;DHT22;19476;51.448;6.674;2023-03-04T06:07:50;12.10;43.90
33105;DHT22;19476;51.448;6.674;2023-03-04T06:10:54;12.10;43.50
33105;DHT22;19476;51.448;6.674;2023-03-04T06:13:20;12.10;43.90
33105;DHT22;19476;51.448;6.674;2023-03-04T06:16:23;12.20;43.60
33105;DHT22;19476;51.448;6.674;2023-03-04T06:18:49;12.20;44.00
33105;DHT22;19476;51.448;6.674;2023-03-04T06:24:46;12.10;44.00
33105;DHT22;19476;51.448;6.674;2023-03-04T06:27:11;12.10;44.40
33105;DHT22;19476;51.448;6.674;2023-03-04T06:29:38;12.10;43.70
33105;DHT22;19476;51.448;6.674;2023-03-04T06:32:04;12.10;43.80
33105;DHT22;19476;51.448;6.674;2023-03-04T06:34:30;12.10;43.70
33105;DHT22;19476;51.448;6.674;2023-03-04T06:36:58;12.10;43.60
33105;DHT22;19476;51.448;6.674;2023-03-04T06:39:24;12.10;43.80
33105;DHT22;19476;51.448;6.674;2023-03-04T06:41:50;12.10;43.80
33105;DHT22;19476;51.448;6.674;2023-03-04T06:44:15;12.10;43.90
33105;DHT22;19476;51.448;6.674;2023-03-04T06:46:41;12.10;43.90
33105;DHT22;19476;51.448;6.674;2023-03-04T06:49:07;12.10;44.00
33105;DHT22;19476;51.448;6.674;2023-03-04T06:51:33;12.00;44.00
33105;DHT22;19476;51.448;6.674;2023-03-04T06:53:59;12.10;44.10
33105;DHT22;19476;51.448;6.674;2023-03-04T06:56:24;12.20;44.20
33105;DHT22;19476;51.448;6.674;2023-03-04T06:58:50;12.20;44.40
33105;DHT22;19476;51.448;6.674;2023-03-04T07:01:19;12.20;44.50
33105;DHT22;19476;51.448;6.674;2023-03-04T07:03:46;12.20;44.80
33105;DHT22;19476;51.448;6.674;2023-03-04T07:06:14;12.30;44.80
33105;DHT22;19476;51.448;6.674;2023-03-04T07:08:41;12.30;44.80
33105;DHT22;19476;51.448;6.674;2023-03-04T07:11:07;12.30;44.70
33105;DHT22;19476;51.448;6.674;2023-03-04T07:13:33;12.30;44.70
33105;DHT22;19476;51.448;6.674;2023-03-04T07:16:07;12.30;44.70
33105;DHT22;19476;51.448;6.674;2023-03-04T07:18:33;12.20;44.80
33105;DHT22;19476;51.448;6.674;2023-03-04T07:20:59;12.20;44.90
33105;DHT22;19476;51.448;6.674;2023-03-04T07:23:25;12.20;45.00
33105;DHT22;19476;51.448;6.674;2023-03-04T07:25:51;12.20;45.20
33105;DHT22;19476;51.448;6.674;2023-03-04T07:28:16;12.20;45.30
33105;DHT22;19476;51.448;6.674;2023-03-04T07:30:43;12.20;45.40
33105;DHT22;19476;51.448;6.674;2023-03-04T07:33:09;12.20;45.50
33105;DHT22;19476;51.448;6.674;2023-03-04T07:35:35;12.30;45.60
33105;DHT22;19476;51.448;6.674;2023-03-04T07:38:01;12.20;45.50
33105;DHT22;19476;51.448;6.674;2023-03-04T07:40:27;12.20;45.60
33105;DHT22;19476;51.448;6.674;2023-03-04T07:42:54;12.20;45.60
33105;DHT22;19476;51.448;6.674;2023-03-04T07:45:21;12.30;45.80
33105;DHT22;19476;51.448;6.674;2023-03-04T07:47:47;12.30;45.80
33105;DHT22;19476;51.448;6.674;2023-03-04T07:50:13;12.30;45.80
33105;DHT22;19476;51.448;6.674;2023-03-04T07:52:40;12.30;45.90
33105;DHT22;19476;51.448;6.674;2023-03-04T07:55:08;12.30;46.10
33105;DHT22;19476;51.448;6.674;2023-03-04T07:57:37;12.20;46.30
33105;DHT22;19476;51.448;6.674;2023-03-04T08:00:03;12.20;46.40
33105;DHT22;19476;51.448;6.674;2023-03-04T08:02:29;12.20;47.10
33105;DHT22;19476;51.448;6.674;2023-03-04T08:04:54;12.20;46.60
33105;DHT22;19476;51.448;6.674;2023-03-04T08:07:20;12.20;46.60
33105;DHT22;19476;51.448;6.674;2023-03-04T08:09:47;12.20;46.60
33105;DHT22;19476;51.448;6.674;2023-03-04T08:12:13;12.20;46.90
33105;DHT22;19476;51.448;6.674;2023-03-04T08:14:39;12.20;46.90
33105;DHT22;19476;51.448;6.674;2023-03-04T08:17:04;12.20;46.90
33105;DHT22;19476;51.448;6.674;2023-03-04T08:19:30;12.20;47.10
33105;DHT22;19476;51.448;6.674;2023-03-04T08:21:56;12.30;47.20
33105;DHT22;19476;51.448;6.674;2023-03-04T08:24:22;12.30;47.10
33105;DHT22;19476;51.448;6.674;2023-03-04T08:26:48;12.20;47.00
33105;DHT22;19476;51.448;6.674;2023-03-04T08:29:19;12.20;47.10
33105;DHT22;19476;51.448;6.674;2023-03-04T08:31:46;12.20;47.20
33105;DHT22;19476;51.448;6.674;2023-03-04T08:34:13;12.20;47.00
33105;DHT22;19476;51.448;6.674;2023-03-04T08:36:40;12.20;47.10
33105;DHT22;19476;51.448;6.674;2023-03-04T08:39:08;12.20;47.20
33105;DHT22;19476;51.448;6.674;2023-03-04T08:41:36;12.20;47.30
33105;DHT22;19476;51.448;6.674;2023-03-04T08:44:02;12.20;47.30
33105;DHT22;19476;51.448;6.674;2023-03-04T08:46:29;12.20;47.30
33105;DHT22;19476;51.448;6.674;2023-03-04T08:48:56;12.20;47.40
33105;DHT22;19476;51.448;6.674;2023-03-04T08:51:22;12.20;47.60
33105;DHT22;19476;51.448;6.674;2023-03-04T08:53:47;12.20;47.80
33105;DHT22;19476;51.448;6.674;2023-03-04T08:56:14;12.20;47.70
33105;DHT22;19476;51.448;6.674;2023-03-04T08:58:41;12.20;48.00
33105;DHT22;19476;51.448;6.674;2023-03-04T09:01:09;12.30;48.00
33105;DHT22;19476;51.448;6.674;2023-03-04T09:03:35;12.30;48.00
33105;DHT22;19476;51.448;6.674;2023-03-04T09:06:01;12.30;47.80
33105;DHT22;19476;51.448;6.674;2023-03-04T09:08:27;12.30;47.90
33105;DHT22;19476;51.448;6.674;2023-03-04T09:10:53;12.30;47.70
33105;DHT22;19476;51.448;6.674;2023-03-04T09:13:20;12.30;47.80
33105;DHT22;19476;51.448;6.674;2023-03-04T09:15:49;12.30;47.90
33105;DHT22;19476;51.448;6.674;2023-03-04T09:18:16;12.30;48.00
33105;DHT22;19476;51.448;6.674;2023-03-04T09:20:42;12.30;48.10
33105;DHT22;19476;51.448;6.674;2023-03-04T09:23:08;12.30;48.10
33105;DHT22;19476;51.448;6.674;2023-03-04T09:25:34;12.30;48.20
33105;DHT22;19476;51.448;6.674;2023-03-04T09:28:00;12.30;48.40
33105;DHT22;19476;51.448;6.674;2023-03-04T09:30:26;12.30;48.40
33105;DHT22;19476;51.448;6.674;2023-03-04T09:32:52;12.30;48.50
33105;DHT22;19476;51.448;6.674;2023-03-04T09:35:18;12.30;48.70
33105;DHT22;19476;51.448;6.674;2023-03-04T09:37:44;12.40;48.70
33105;DHT22;19476;51.448;6.674;2023-03-04T09:40:18;12.40;48.70
33105;DHT22;19476;51.448;6.674;2023-03-04T09:42:52;12.50;48.90
33105;DHT22;19476;51.448;6.674;2023-03-04T09:45:21;12.50;48.60
33105;DHT22;19476;51.448;6.674;2023-03-04T09:47:51;12.60;48.40
33105;DHT22;19476;51.448;6.674;2023-03-04T09:50:19;12.60;48.30
33105;DHT22;19476;51.448;6.674;2023-03-04T09:55:40;12.70;48.60
33105;DHT22;19476;51.448;6.674;2023-03-04T10:00:44;12.80;48.10
33105;DHT22;19476;51.448;6.674;2023-03-04T10:03:16;12.80;48.30
33105;DHT22;19476;51.448;6.674;2023-03-04T10:11:02;12.90;48.00
33105;DHT22;19476;51.448;6.674;2023-03-04T10:13:34;13.00;47.70
33105;DHT22;19476;51.448;6.674;2023-03-04T10:16:04;13.00;47.60
33105;DHT22;19476;51.448;6.674;2023-03-04T10:18:38;13.10;47.50
33105;DHT22;19476;51.448;6.674;2023-03-04T10:21:14;13.10;47.80
33105;DHT22;19476;51.448;6.674;2023-03-04T10:23:42;13.00;47.60
33105;DHT22;19476;51.448;6.674;2023-03-04T10:26:16;13.00;47.60
33105;DHT22;19476;51.448;6.674;2023-03-04T10:28:46;13.00;48.00
33105;DHT22;19476;51.448;6.674;2023-03-04T10:33:48;13.00;48.00
33105;DHT22;19476;51.448;6.674;2023-03-04T10:37:11;13.00;48.00
33105;DHT22;19476;51.448;6.674;2023-03-04T10:44:59;13.20;47.50
33105;DHT22;19476;51.448;6.674;2023-03-04T10:47:29;13.30;47.80
33105;DHT22;19476;51.448;6.674;2023-03-04T10:50:00;13.20;47.40
33105;DHT22;19476;51.448;6.674;2023-03-04T10:55:05;13.30;47.20
33105;DHT22;19476;51.448;6.674;2023-03-04T10:57:40;13.30;47.30
33105;DHT22;19476;51.448;6.674;2023-03-04T11:02:51;13.30;47.30
33105;DHT22;19476;51.448;6.674;2023-03-04T11:05:23;13.30;47.10
33105;DHT22;19476;51.448;6.674;2023-03-04T11:07:58;13.30;47.20
33105;DHT22;19476;51.448;6.674;2023-03-04T11:10:39;13.30;47.20
33105;DHT22;19476;51.448;6.674;2023-03-04T11:13:12;13.30;47.40
33105;DHT22;19476;51.448;6.674;2023-03-04T11:15:55;13.40;47.30
33105;DHT22;19476;51.448;6.674;2023-03-04T11:18:45;13.40;47.80
33105;DHT22;19476;51.448;6.674;2023-03-04T11:21:19;13.50;47.20
33105;DHT22;19476;51.448;6.674;2023-03-04T11:23:56;13.50;46.90
33105;DHT22;19476;51.448;6.674;2023-03-04T11:26:30;13.10;46.70
33105;DHT22;19476;51.448;6.674;2023-03-04T11:29:30;13.60;46.70
33105;DHT22;19476;51.448;6.674;2023-03-04T11:34:43;13.60;46.50
33105;DHT22;19476;51.448;6.674;2023-03-04T11:37:40;13.60;47.20
33105;DHT22;19476;51.448;6.674;2023-03-04T11:40:13;13.60;46.80
33105;DHT22;19476;51.448;6.674;2023-03-04T11:43:25;13.70;46.80
33105;DHT22;19476;51.448;6.674;2023-03-04T11:51:52;13.70;47.20
33105;DHT22;19476;51.448;6.674;2023-03-04T11:56:41;13.70;47.30
33105;DHT22;19476;51.448;6.674;2023-03-04T12:04:39;13.70;47.20
33105;DHT22;19476;51.448;6.674;2023-03-04T12:18:46;13.70;48.00
33105;DHT22;19476;51.448;6.674;2023-03-04T12:21:58;13.70;47.90
33105;DHT22;19476;51.448;6.674;2023-03-04T12:27:28;13.70;47.60
33105;DHT22;19476;51.448;6.674;2023-03-04T12:35:34;13.70;47.80
33105;DHT22;19476;51.448;6.674;2023-03-04T12:46:03;13.60;47.90
33105;DHT22;19476;51.448;6.674;2023-03-04T12:48:36;13.60;48.20
33105;DHT22;19476;51.448;6.674;2023-03-04T12:56:46;13.40;48.70
33105;DHT22;19476;51.448;6.674;2023-03-04T12:59:17;13.60;48.60
33105;DHT22;19476;51.448;6.674;2023-03-04T13:08:01;13.50;50.20
33105;DHT22;19476;51.448;6.674;2023-03-04T13:10:32;13.40;49.90
33105;DHT22;19476;51.448;6.674;2023-03-04T13:12:59;13.40;49.50
33105;DHT22;19476;51.448;6.674;2023-03-04T13:17:52;13.40;49.60
33105;DHT22;19476;51.448;6.674;2023-03-04T13:22:57;13.50;49.90
33105;DHT22;19476;51.448;6.674;2023-03-04T13:30:40;13.60;49.60
33105;DHT22;19476;51.448;6.674;2023-03-04T13:38:35;13.60;49.50
33105;DHT22;19476;51.448;6.674;2023-03-04T13:43:49;13.60;49.70
33105;DHT22;19476;51.448;6.674;2023-03-04T13:54:25;13.50;50.20
33105;DHT22;19476;51.448;6.674;2023-03-04T13:59:48;13.50;50.50
33105;DHT22;19476;51.448;6.674;2023-03-04T14:02:19;13.50;51.30
33105;DHT22;19476;51.448;6.674;2023-03-04T14:07:33;13.50;51.10
33105;DHT22;19476;51.448;6.674;2023-03-04T14:12:46;13.60;51.60
33105;DHT22;19476;51.448;6.674;2023-03-04T14:17:48;13.50;51.30
33105;DHT22;19476;51.448;6.674;2023-03-04T14:20:33;13.50;51.80
33105;DHT22;19476;51.448;6.674;2023-03-04T14:23:02;13.40;52.10
33105;DHT22;19476;51.448;6.674;2023-03-04T14:25:33;13.40;51.60
33105;DHT22;19476;51.448;6.674;2023-03-04T14:28:16;13.40;52.00
33105;DHT22;19476;51.448;6.674;2023-03-04T14:30:43;13.40;52.00
33105;DHT22;19476;51.448;6.674;2023-03-04T14:33:20;13.40;51.90
33105;DHT22;19476;51.448;6.674;2023-03-04T14:35:58;13.50;51.90
33105;DHT22;19476;51.448;6.674;2023-03-04T14:38:33;13.50;51.80
33105;DHT22;19476;51.448;6.674;2023-03-04T14:41:06;13.50;51.80
33105;DHT22;19476;51.448;6.674;2023-03-04T14:46:16;13.60;51.40
33105;DHT22;19476;51.448;6.674;2023-03-04T14:48:51;13.60;51.00
33105;DHT22;19476;51.448;6.674;2023-03-04T14:51:47;13.60;50.90
33105;DHT22;19476;51.448;6.674;2023-03-04T14:57:18;13.60;50.90
33105;DHT22;19476;51.448;6.674;2023-03-04T14:59:46;13.60;50.50
33105;DHT22;19476;51.448;6.674;2023-03-04T15:02:23;13.60;50.40
33105;DHT22;19476;51.448;6.674;2023-03-04T15:04:54;13.60;51.10
33105;DHT22;19476;51.448;6.674;2023-03-04T15:07:29;13.60;50.70
33105;DHT22;19476;51.448;6.674;2023-03-04T15:09:56;13.60;50.90
33105;DHT22;19476;51.448;6.674;2023-03-04T15:12:31;13.60;50.60
33105;DHT22;19476;51.448;6.674;2023-03-04T15:15:00;13.70;51.10
33105;DHT22;19476;51.448;6.674;2023-03-04T15:25:32;13.70;50.60
33105;DHT22;19476;51.448;6.674;2023-03-04T15:27:58;13.70;50.40
33105;DHT22;19476;51.448;6.674;2023-03-04T15:30:32;13.70;50.30
33105;DHT22;19476;51.448;6.674;2023-03-04T15:32:58;13.70;50.40
33105;DHT22;19476;51.448;6.674;2023-03-04T15:35:28;13.70;50.10
33105;DHT22;19476;51.448;6.674;2023-03-04T15:37:55;13.70;50.10
33105;DHT22;19476;51.448;6.674;2023-03-04T15:40:29;13.70;49.70
33105;DHT22;19476;51.448;6.674;2023-03-04T15:42:57;13.60;49.70
33105;DHT22;19476;51.448;6.674;2023-03-04T15:45:29;13.60;49.50
33105;DHT22;19476;51.448;6.674;2023-03-04T15:47:55;13.60;49.30
33105;DHT22;19476;51.448;6.674;2023-03-04T15:50:26;13.50;49.00
33105;DHT22;19476;51.448;6.674;2023-03-04T15:52:55;13.50;49.00
33105;DHT22;19476;51.448;6.674;2023-03-04T15:55:23;13.50;48.90
33105;DHT22;19476;51.448;6.674;2023-03-04T15:57:53;13.60;48.90
33105;DHT22;19476;51.448;6.674;2023-03-04T16:00:19;13.50;48.80
33105;DHT22;19476;51.448;6.674;2023-03-04T16:02:46;13.60;48.70
33105;DHT22;19476;51.448;6.674;2023-03-04T16:05:13;13.60;48.40
33105;DHT22;19476;51.448;6.674;2023-03-04T16:07:44;13.50;48.30
33105;DHT22;19476;51.448;6.674;2023-03-04T16:10:28;13.50;48.30
33105;DHT22;19476;51.448;6.674;2023-03-04T16:12:55;13.50;48.40
33105;DHT22;19476;51.448;6.674;2023-03-04T16:15:24;13.50;48.20
33105;DHT22;19476;51.448;6.674;2023-03-04T16:17:50;13.50;48.10
33105;DHT22;19476;51.448;6.674;2023-03-04T16:20:26;13.50;48.20
33105;DHT22;19476;51.448;6.674;2023-03-04T16:22:58;13.50;48.20
33105;DHT22;19476;51.448;6.674;2023-03-04T16:25:25;13.50;48.00
33105;DHT22;19476;51.448;6.674;2023-03-04T16:27:52;13.60;47.90
33105;DHT22;19476;51.448;6.674;2023-03-04T16:30:23;13.60;47.70
33105;DHT22;19476;51.448;6.674;2023-03-04T16:32:48;13.50;47.30
33105;DHT22;19476;51.448;6.674;2023-03-04T16:35:16;13.60;47.30
33105;DHT22;19476;51.448;6.674;2023-03-04T16:37:43;13.60;47.10
33105;DHT22;19476;51.448;6.674;2023-03-04T16:40:13;13.60;46.80
33105;DHT22;19476;51.448;6.674;2023-03-04T16:42:38;13.50;46.60
33105;DHT22;19476;51.448;6.674;2023-03-04T16:45:19;13.60;46.60
33105;DHT22;19476;51.448;6.674;2023-03-04T16:47:44;13.50;46.40
33105;DHT22;19476;51.448;6.674;2023-03-04T16:50:22;13.50;46.10
33105;DHT22;19476;51.448;6.674;2023-03-04T16:52:52;13.40;45.20
33105;DHT22;19476;51.448;6.674;2023-03-04T16:55:25;13.40;45.40
33105;DHT22;19476;51.448;6.674;2023-03-04T16:57:52;13.40;44.80
33105;DHT22;19476;51.448;6.674;2023-03-04T17:00:20;13.40;45.10
33105;DHT22;19476;51.448;6.674;2023-03-04T17:02:56;13.10;44.90
33105;DHT22;19476;51.448;6.674;2023-03-04T17:05:24;13.30;44.60
33105;DHT22;19476;51.448;6.674;2023-03-04T17:07:50;13.30;44.80
33105;DHT22;19476;51.448;6.674;2023-03-04T17:10:17;13.30;44.90
33105;DHT22;19476;51.448;6.674;2023-03-04T17:12:43;13.30;44.90
33105;DHT22;19476;51.448;6.674;2023-03-04T17:15:13;13.30;44.90
33105;DHT22;19476;51.448;6.674;2023-03-04T17:17:40;13.30;44.90
33105;DHT22;19476;51.448;6.674;2023-03-04T17:20:07;13.30;45.00
33105;DHT22;19476;51.448;6.674;2023-03-04T17:22:33;13.40;45.00
33105;DHT22;19476;51.448;6.674;2023-03-04T17:25:00;13.40;45.00
33105;DHT22;19476;51.448;6.674;2023-03-04T17:27:27;13.40;44.90
33105;DHT22;19476;51.448;6.674;2023-03-04T17:29:53;13.40;44.90
33105;DHT22;19476;51.448;6.674;2023-03-04T17:32:19;13.50;44.90
33105;DHT22;19476;51.448;6.674;2023-03-04T17:34:45;13.50;44.80
33105;DHT22;19476;51.448;6.674;2023-03-04T17:37:12;13.50;44.70
33105;DHT22;19476;51.448;6.674;2023-03-04T17:39:38;13.50;44.70
33105;DHT22;19476;51.448;6.674;2023-03-04T17:42:04;13.50;44.70
33105;DHT22;19476;51.448;6.674;2023-03-04T17:44:30;13.50;44.60
33105;DHT22;19476;51.448;6.674;2023-03-04T17:46:55;13.50;44.60
33105;DHT22;19476;51.448;6.674;2023-03-04T17:49:22;13.50;44.60
33105;DHT22;19476;51.448;6.674;2023-03-04T17:51:48;13.50;44.70
33105;DHT22;19476;51.448;6.674;2023-03-04T17:54:14;13.60;44.60
33105;DHT22;19476;51.448;6.674;2023-03-04T17:56:40;13.60;44.40
33105;DHT22;19476;51.448;6.674;2023-03-04T17:59:13;13.60;44.40
33105;DHT22;19476;51.448;6.674;2023-03-04T18:01:41;13.50;44.30
33105;DHT22;19476;51.448;6.674;2023-03-04T18:04:09;13.50;44.30
33105;DHT22;19476;51.448;6.674;2023-03-04T18:06:35;13.40;44.40
33105;DHT22;19476;51.448;6.674;2023-03-04T18:09:02;13.40;44.40
33105;DHT22;19476;51.448;6.674;2023-03-04T18:11:29;13.40;44.60
33105;DHT22;19476;51.448;6.674;2023-03-04T18:13:55;13.30;44.70
33105;DHT22;19476;51.448;6.674;2023-03-04T18:16:21;13.30;44.80
33105;DHT22;19476;51.448;6.674;2023-03-04T18:18:49;13.30;44.70
33105;DHT22;19476;51.448;6.674;2023-03-04T18:21:16;13.30;44.70
33105;DHT22;19476;51.448;6.674;2023-03-04T18:23:42;13.30;44.80
33105;DHT22;19476;51.448;6.674;2023-03-04T18:26:08;13.70;45.00
33105;DHT22;19476;51.448;6.674;2023-03-04T18:28:34;13.30;44.60
33105;DHT22;19476;51.448;6.674;2023-03-04T18:31:00;13.30;44.60
33105;DHT22;19476;51.448;6.674;2023-03-04T18:33:27;13.30;44.60
33105;DHT22;19476;51.448;6.674;2023-03-04T18:36:00;13.30;44.60
33105;DHT22;19476;51.448;6.674;2023-03-04T18:38:26;13.30;44.50
33105;DHT22;19476;51.448;6.674;2023-03-04T18:40:57;13.30;44.50
33105;DHT22;19476;51.448;6.674;2023-03-04T18:43:23;13.30;44.20
33105;DHT22;19476;51.448;6.674;2023-03-04T18:46:05;13.30;44.20
33105;DHT22;19476;51.448;6.674;2023-03-04T18:48:34;13.30;44.00
33105;DHT22;19476;51.448;6.674;2023-03-04T18:51:01;13.30;44.10
33105;DHT22;19476;51.448;6.674;2023-03-04T18:53:30;13.30;44.10
33105;DHT22;19476;51.448;6.674;2023-03-04T18:55:59;13.30;43.90
33105;DHT22;19476;51.448;6.674;2023-03-04T18:58:30;13.10;43.90
33105;DHT22;19476;51.448;6.674;2023-03-04T19:00:56;13.30;44.00
33105;DHT22;19476;51.448;6.674;2023-03-04T19:03:22;13.30;43.90
33105;DHT22;19476;51.448;6.674;2023-03-04T19:05:48;13.30;43.90
33105;DHT22;19476;51.448;6.674;2023-03-04T19:08:14;13.30;43.80
33105;DHT22;19476;51.448;6.674;2023-03-04T19:10:39;13.30;43.80
33105;DHT22;19476;51.448;6.674;2023-03-04T19:13:05;13.30;43.80
33105;DHT22;19476;51.448;6.674;2023-03-04T19:15:31;13.30;43.70
33105;DHT22;19476;51.448;6.674;2023-03-04T19:21:19;13.30;44.00
33105;DHT22;19476;51.448;6.674;2023-03-04T19:27:06;13.30;44.20
33105;DHT22;19476;51.448;6.674;2023-03-04T19:29:32;13.30;44.00
33105;DHT22;19476;51.448;6.674;2023-03-04T19:31:58;13.30;43.80
33105;DHT22;19476;51.448;6.674;2023-03-04T19:34:23;13.30;43.80
33105;DHT22;19476;51.448;6.674;2023-03-04T19:36:49;13.30;43.80
33105;DHT22;19476;51.448;6.674;2023-03-04T19:39:15;13.30;43.90
33105;DHT22;19476;51.448;6.674;2023-03-04T19:41:43;13.60;44.00
33105;DHT22;19476;51.448;6.674;2023-03-04T19:54:24;13.30;44.10
33105;DHT22;19476;51.448;6.674;2023-03-04T20:00:21;13.20;44.40
33105;DHT22;19476;51.448;6.674;2023-03-04T20:02:47;13.20;44.50
33105;DHT22;19476;51.448;6.674;2023-03-04T20:05:14;13.20;44.50
33105;DHT22;19476;51.448;6.674;2023-03-04T20:07:40;13.10;44.60
33105;DHT22;19476;51.448;6.674;2023-03-04T20:10:06;13.10;44.70
33105;DHT22;19476;51.448;6.674;2023-03-04T20:12:32;13.10;44.70
33105;DHT22;19476;51.448;6.674;2023-03-04T20:14:58;13.10;44.80
33105;DHT22;19476;51.448;6.674;2023-03-04T20:17:24;13.10;45.00
33105;DHT22;19476;51.448;6.674;2023-03-04T20:19:50;13.10;45.00
33105;DHT22;19476;51.448;6.674;2023-03-04T20:22:16;13.00;45.10
33105;DHT22;19476;51.448;6.674;2023-03-04T20:24:42;13.00;45.00
33105;DHT22;19476;51.448;6.674;2023-03-04T20:27:08;13.00;45.00
33105;DHT22;19476;51.448;6.674;2023-03-04T20:29:35;13.00;45.20
33105;DHT22;19476;51.448;6.674;2023-03-04T20:32:01;13.00;45.30
33105;DHT22;19476;51.448;6.674;2023-03-04T20:34:28;12.90;45.30
33105;DHT22;19476;51.448;6.674;2023-03-04T20:36:54;12.80;45.30
33105;DHT22;19476;51.448;6.674;2023-03-04T20:39:19;12.80;45.50